Time;durP1;ratioP1;P1;durP2;ratioP2;P2;SDS_P1;SDS_P2;PMS_P1;PMS_P2;Temp;Humidity;BMP_temperature;BMP_pressure;BME280_temperature;BME280_humidity;BME280_pressure;Samples;Min_cycle;Max_cycle;Signal;HPM_P1;HPM_P2
2021/01/18 00:12:04;;;;;;;15.68;11.23;;;;;;;18.21;32.83;101496.06;31500448;28;20093;-68
2021/01/18 00:27:05;;;;;;;16.20;11.07;;;;;;;18.10;33.12;101485.44;31460374;28;20383;-67
2021/01/18 00:42:06;;;;;;;15.32;11.27;;;;;;;17.98;33.27;101481.84;31491531;28;20027;-65
2021/01/18 00:57:07;;;;;;;14.80;11.38;;;;;;;17.88;33.43;101473.75;31473557;28;20039;-65
2021/01/18 01:12:08;;;;;;;14.30;10.52;;;;;;;17.81;33.41;101467.22;31490342;28;20405;-65
2021/01/18 01:27:09;;;;;;;13.90;11.02;;;;;;;17.79;33.44;101467.28;31471095;28;20040;-65
2021/01/18 01:42:18;;;;;;;15.02;11.40;;;;;;;17.72;33.90;101452.06;31473208;28;20034;-66
2021/01/18 01:57:18;;;;;;;13.95;10.60;;;;;;;17.66;33.88;101445.44;31496558;28;20254;-65
2021/01/18 02:12:19;;;;;;;14.23;10.30;;;;;;;17.52;33.91;101438.50;31519700;28;20075;-66
2021/01/18 02:27:29;;;;;;;14.45;10.57;;;;;;;17.40;34.12;101433.22;31488966;28;20159;-65
2021/01/18 02:42:31;;;;;;;14.18;10.60;;;;;;;17.26;34.35;101423.63;31483555;28;20094;-66
2021/01/18 02:57:32;;;;;;;13.93;10.13;;;;;;;17.21;34.29;101415.22;31460668;28;20024;-66
2021/01/18 03:12:41;;;;;;;14.40;10.93;;;;;;;17.23;34.27;101419.44;31457188;28;482706;-66
2021/01/18 03:27:53;;;;;;;15.85;10.20;;;;;;;17.24;34.43;101405.34;31481690;28;20044;-65
2021/01/18 03:42:57;;;;;;;15.18;10.73;;;;;;;17.14;34.41;101397.25;31496900;28;20017;-66
2021/01/18 03:57:58;;;;;;;17.05;10.82;;;;;;;17.07;34.29;101393.34;31476842;28;20045;-66
2021/01/18 04:12:59;;;;;;;12.75;10.50;;;;;;;17.00;34.57;101397.34;31458835;28;20053;-65
2021/01/18 04:28:01;;;;;;;14.73;10.40;;;;;;;16.93;34.43;101383.75;31476582;28;20048;-66
2021/01/18 04:43:02;;;;;;;13.98;10.60;;;;;;;17.00;34.20;101372.88;31456589;28;20036;-65
2021/01/18 04:58:13;;;;;;;13.68;10.23;;;;;;;16.96;34.14;101366.97;31472229;28;20039;-67
2021/01/18 05:13:16;;;;;;;13.80;9.95;;;;;;;16.89;34.32;101368.31;31470195;28;20056;-66
2021/01/18 05:28:17;;;;;;;14.77;10.52;;;;;;;16.88;34.34;101379.75;31453070;28;20029;-65
2021/01/18 05:43:18;;;;;;;15.93;11.23;;;;;;;16.74;34.42;101378.00;31487017;28;20024;-66
2021/01/18 05:58:33;;;;;;;14.73;10.73;;;;;;;16.78;34.33;101369.00;31454866;28;20029;-66
2021/01/18 06:13:33;;;;;;;13.77;9.68;;;;;;;17.03;33.79;101362.16;31488580;28;20041;-66
2021/01/18 06:28:38;;;;;;;13.43;10.55;;;;;;;17.02;33.69;101371.81;31453741;28;20052;-66
2021/01/18 06:43:45;;;;;;;14.88;10.65;;;;;;;16.84;33.80;101384.38;31484933;28;20098;-66
2021/01/18 06:59:04;;;;;;;14.23;10.27;;;;;;;16.71;34.44;101400.03;31466484;28;20070;-66
2021/01/18 07:14:10;;;;;;;29.67;22.42;;;;;;;12.63;26.82;101404.63;31490257;28;20036;-65
2021/01/18 07:29:12;;;;;;;33.45;21.25;;;;;;;7.51;35.66;101403.50;31457106;28;20173;-66
2021/01/18 07:44:46;;;;;;;26.80;16.05;;;;;;;9.93;39.93;101403.75;31458231;28;20089;-67
2021/01/18 07:59:47;;;;;;;23.67;15.63;;;;;;;13.18;34.16;101396.72;31464418;28;20047;-67
2021/01/18 08:14:48;;;;;;;25.10;17.63;;;;;;;14.84;31.75;101395.72;31493032;28;20044;-66
2021/01/18 08:29:50;;;;;;;24.73;15.07;;;;;;;15.84;33.20;101377.56;31459598;28;20029;-67
2021/01/18 08:45:09;;;;;;;19.52;13.07;;;;;;;16.83;31.81;101380.06;31454298;28;20032;-66
2021/01/18 09:00:11;;;;;;;64.10;46.53;;;;;;;17.08;28.72;101388.94;31432919;28;20532;-67
2021/01/18 09:15:12;;;;;;;19.95;14.15;;;;;;;17.81;31.33;101372.56;31462394;28;20091;-68
2021/01/18 09:30:17;;;;;;;20.00;12.55;;;;;;;18.24;31.11;101373.94;31440687;28;20070;-69
2021/01/18 09:45:17;;;;;;;18.75;12.40;;;;;;;18.40;31.40;101359.56;31457218;28;20029;-66
2021/01/18 10:00:19;;;;;;;15.40;11.52;;;;;;;18.56;31.81;101361.91;31469073;28;20036;-66
2021/01/18 10:15:27;;;;;;;19.95;10.93;;;;;;;18.83;31.29;101340.63;31448981;28;20058;-66
2021/01/18 10:30:29;;;;;;;16.70;11.10;;;;;;;19.10;31.58;101342.09;31458301;28;20032;-67
2021/01/18 10:45:30;;;;;;;15.25;10.70;;;;;;;19.17;31.47;101332.81;31492353;28;20040;-67
2021/01/18 11:00:31;;;;;;;13.88;11.10;;;;;;;19.22;31.64;101327.19;31466378;28;20367;-67
2021/01/18 11:15:38;;;;;;;13.85;11.10;;;;;;;19.28;31.77;101323.22;31444927;28;20036;-69
2021/01/18 11:30:40;;;;;;;15.53;10.87;;;;;;;19.36;31.69;101300.56;31462278;28;20441;-69
2021/01/18 11:45:41;;;;;;;17.27;13.10;;;;;;;19.28;31.38;101286.31;31448061;28;20286;-68
2021/01/18 12:00:42;;;;;;;14.87;12.03;;;;;;;19.55;30.93;101267.50;31459978;28;20048;-68
2021/01/18 12:15:44;;;;;;;15.63;12.15;;;;;;;19.76;30.25;101251.78;31409659;28;20303;-67
2021/01/18 12:30:45;;;;;;;15.73;12.32;;;;;;;20.00;30.53;101227.88;31466953;28;20041;-67
2021/01/18 12:45:46;;;;;;;15.25;11.38;;;;;;;20.34;30.17;101214.50;31478725;28;20405;-68
2021/01/18 13:00:47;;;;;;;14.98;11.60;;;;;;;20.53;30.25;101216.44;31441881;28;20081;-69
2021/01/18 13:15:48;;;;;;;15.03;11.20;;;;;;;20.57;30.22;101184.41;31467088;28;20036;-67
2021/01/18 13:30:49;;;;;;;18.80;12.73;;;;;;;20.53;30.68;101172.38;31481441;28;20779;-67
2021/01/18 13:45:50;;;;;;;15.73;11.13;;;;;;;20.60;31.15;101170.94;31492395;28;20283;-69
2021/01/18 14:00:51;;;;;;;16.35;10.93;;;;;;;20.74;31.12;101167.09;31443744;28;20639;-69
2021/01/18 14:15:52;;;;;;;15.35;12.38;;;;;;;20.56;30.67;101152.81;31485794;28;20086;-68
2021/01/18 14:30:53;;;;;;;15.05;11.48;;;;;;;20.61;31.32;101145.34;31458403;28;20479;-67
2021/01/18 14:45:54;;;;;;;17.58;14.02;;;;;;;20.65;28.69;101123.81;31474188;28;20028;-68
2021/01/18 15:00:55;;;;;;;15.40;12.70;;;;;;;20.59;29.14;101115.59;31462146;28;20032;-68
2021/01/18 15:15:56;;;;;;;14.27;11.80;;;;;;;20.57;28.95;101099.91;31428330;28;20287;-68
2021/01/18 15:30:58;;;;;;;16.20;12.40;;;;;;;20.59;29.05;101094.47;31467432;28;20291;-68
2021/01/18 15:45:59;;;;;;;14.85;11.75;;;;;;;20.58;28.95;101085.72;31484681;28;20279;-68
2021/01/18 16:01:00;;;;;;;15.03;11.87;;;;;;;20.59;29.19;101076.84;31471384;28;20044;-67
2021/01/18 16:16:01;;;;;;;15.73;11.67;;;;;;;20.61;29.09;101072.22;31468426;28;20306;-67
2021/01/18 16:31:02;;;;;;;15.83;12.03;;;;;;;20.19;29.77;101061.75;31485957;28;20297;-67
2021/01/18 16:46:03;;;;;;;16.00;11.67;;;;;;;20.45;29.85;101045.44;31471055;28;20293;-68
2021/01/18 17:01:04;;;;;;;13.97;10.67;;;;;;;20.57;29.65;101035.66;31454608;28;20298;-67
2021/01/18 17:16:05;;;;;;;13.57;10.43;;;;;;;20.65;29.57;101030.56;31438387;28;20305;-67
2021/01/18 17:31:06;;;;;;;10.30;8.00;;;;;;;20.20;28.53;101015.06;31438474;28;20303;-69
2021/01/18 17:46:07;;;;;;;12.63;7.90;;;;;;;17.79;29.19;101004.53;31416298;28;20041;-66
2021/01/18 18:01:08;;;;;;;19.60;8.63;;;;;;;18.55;30.89;100996.09;31354723;28;20784;-66
2021/01/18 18:16:20;;;;;;;14.73;7.67;;;;;;;19.43;31.43;100993.34;31347132;28;20038;-67
2021/01/18 18:31:21;;;;;;;13.43;7.70;;;;;;;19.98;30.07;100990.53;31328358;28;20623;-67
2021/01/18 18:46:22;;;;;;;13.97;7.63;;;;;;;20.26;29.43;100978.41;31375705;28;20059;-66
2021/01/18 19:01:23;;;;;;;9.97;7.77;;;;;;;20.20;30.09;100967.56;31361985;28;20302;-67
2021/01/18 19:16:24;;;;;;;12.07;8.47;;;;;;;20.20;30.07;100952.56;31344427;28;20306;-66
2021/01/18 19:31:25;;;;;;;14.47;8.50;;;;;;;20.39;30.43;100950.97;31355831;28;20299;-66
2021/01/18 19:46:27;;;;;;;13.13;9.33;;;;;;;20.55;30.05;100953.06;31347874;28;20287;-66
2021/01/18 20:01:33;;;;;;;13.00;9.45;;;;;;;20.54;29.87;100952.22;31369757;28;20311;-66
2021/01/18 20:16:35;;;;;;;12.90;9.47;;;;;;;20.52;29.89;100956.81;31366340;28;20037;-66
2021/01/18 20:31:37;;;;;;;13.23;9.70;;;;;;;20.51;29.84;100955.97;31345412;28;20036;-67
2021/01/18 20:46:39;;;;;;;13.23;9.63;;;;;;;20.59;29.84;100947.44;31344242;28;20430;-66
2021/01/18 21:01:40;;;;;;;13.02;9.48;;;;;;;20.64;29.95;100939.09;31342785;28;20063;-66
2021/01/18 21:16:41;;;;;;;9.63;7.05;;;;;;;20.48;30.26;100926.41;31317978;28;20513;-67
2021/01/18 21:31:45;;;;;;;13.40;10.27;;;;;;;20.15;30.51;100919.63;31343238;28;20033;-68
2021/01/18 21:46:46;;;;;;;11.07;7.88;;;;;;;18.70;33.00;100918.53;31351627;28;20086;-66
2021/01/18 22:01:47;;;;;;;11.30;8.00;;;;;;;19.18;32.33;100915.50;31341624;28;20044;-67
2021/01/18 22:16:50;;;;;;;9.60;7.07;;;;;;;19.21;32.21;100917.84;31360702;28;20048;-69
2021/01/18 22:31:52;;;;;;;10.00;7.35;;;;;;;19.11;32.57;100924.88;31331372;28;20288;-68
2021/01/18 22:46:53;;;;;;;12.88;7.15;;;;;;;19.02;32.81;100921.19;31344344;28;20051;-68
2021/01/18 23:01:54;;;;;;;9.80;7.37;;;;;;;18.92;33.31;100924.69;31376423;28;20082;-68
2021/01/18 23:16:55;;;;;;;10.65;6.65;;;;;;;18.81;33.25;100915.91;31373425;28;20299;-69
2021/01/18 23:31:56;;;;;;;9.57;7.20;;;;;;;18.74;33.24;100901.53;31387446;28;20060;-68
2021/01/18 23:46:57;;;;;;;9.63;7.13;;;;;;;18.72;33.07;100892.91;31370708;28;20803;-69
